Airfield :
LOGIN :

Register | Disclaimer

   EN    FR    IT 

 










Legend :    VFR   Marginal VFR   IFR   Intensive IFR   Very Intensive IFR
Visi :
Ceiling :
>= 8 km
>= 3000ft
5 to 8 km
1000 to 3000 ft
1500m to 5 km
500 to 1000 ft
800 to 1500m
200 to 500 ft
< 800m
< 200 ft
Symbols :   Thunderstorms  Fog  Heavy snow  Heavy precipitations  Wind > 20 kt
SIGMETs :     Misc.  Thunderstorms  Icing  Turbulence  Mountain Waves  Volcanic Ashes







- Airport Elevation : 7 ft
- IATA code : ESH
- Download approach charts


EGKA - Shoreham

CURRENT METAR :
  • 301620Z 11012KT 9000 -RA BKN040 12/09 Q0998

EXPIRED METARs :
  • 301550Z 11012KT 9999 BKN046 12/09 Q0998
  • 301520Z 11011KT 9999 -RA BKN046 12/08 Q0998
  • 301450Z 10008KT 9999 -RA BKN042 12/09 Q0998
  • 301420Z 12006KT 9000 -RA BKN040 11/09 Q0999
  • 301350Z 12009KT 9999 -RA FEW040 12/09 Q0999

TAF AMD TAF EGKA
Valid from the 30 at 15:00 until the 30 at 18:00 UTC


301501Z 3015/3018 10010KT 9999 BKN045
BECMG 3015/3018 18008KT
TEMPO 3015/3018 7000 RA
ATIS : +44 1273 467 372
No reported NOTAMs for that airfield.



MET'MAP, your aeronautical weather chart ! - Copyright ORBIFLY December 2007 - Disclaimer

ORBIFLY MET'MAP TEAM :

Programming & Development : Alexandra Zaïnal
Concept & Development : Baudouin d'Aumeries
Co-Development & Prog : Marc-Olivier Méhu
Technical & hardware support : Manuel Goepfert

Contact : metmap@orbifly.com




SOURCES & CREDITS :

   NOAA